Flying Cat 3 — SX6671 — position and weather

sailwx.info

Track history (hours):
 
Tides and Currents Weather Stations Pressure Air Temp Water Temp Dewpoint Dewpoint Depression Visibility Wind Speed Wind Dir Waves Ship Positions

Flying Cat 3

Last reported at 2014-Jul-29 21:33 UTC. Time now 2014-Jul-30 03:00 UTC.
Position N 37°49' E 023°40'.

Length 48 m; draft 1.5 m.

Type: High speed craft. MMSI: 239552000.

Date/timePositionNaut miles runAvg speedWind from/ knotsBaromVisibWave heightAir tempDewpointWater temp
2014-Jul-29 21:33N 37°49' E 023°40'6832.3
2014-Jul-29 19:27N 36°57' E 024°35'2311.9
2014-Jul-29 17:33N 36°40' E 024°54'22 9.0
2014-Jul-29 15:07N 36°56' E 024°35'7629.6
2014-Jul-29 12:34N 37°56' E 023°38'0 0.3
2014-Jul-29 11:34N 37°57' E 023°38'0 0.0
2014-Jul-28 22:09N 37°57' E 023°38'1322.8
2014-Jul-28 21:33N 37°44' E 023°44'6428.7
2014-Jul-28 19:20N 36°53' E 024°31'1910.9
2014-Jul-28 17:34N 36°41' E 024°51'8018.1
2014-Jul-28 13:07N 37°40' E 023°42'1729.4
2014-Jul-28 12:34N 37°56' E 023°38'0 0.3
2014-Jul-28 11:33N 37°57' E 023°38'0 0.0
2014-Jul-28 10:33N 37°57' E 023°38'0 0.0
2014-Jul-27 22:03N 37°57' E 023°38'1121.4
2014-Jul-27 21:33N 37°46' E 023°42'8521.4
2014-Jul-27 17:33N 36°41' E 024°51'20 8.1
2014-Jul-27 15:06N 36°56' E 024°35'6230.6
2014-Jul-27 13:04N 37°41' E 023°41'7 0.5
2014-Jul-26 21:33N 37°48' E 023°41'9422.3
2014-Jul-26 17:21N 36°37' E 024°57'8820.6
2014-Jul-26 13:05N 37°41' E 023°41'1629.5
2014-Jul-26 12:33N 37°56' E 023°38'0 0.3
2014-Jul-26 11:33N 37°57' E 023°38'0 0.0
2014-Jul-26 10:33N 37°57' E 023°38'8 0.6
2014-Jul-25 21:33N 37°48' E 023°40'6831.3
2014-Jul-25 19:22N 36°54' E 024°33'2511.1
2014-Jul-25 17:10N 36°38' E 024°56'10021.6
2014-Jul-25 12:33N 37°56' E 023°38'0 0.5
2014-Jul-25 11:33N 37°57' E 023°38'77 4.7
2014-Jul-24 19:21N 36°52' E 024°31'2111.7
2014-Jul-24 17:33N 36°40' E 024°52'9619.2
2014-Jul-24 12:33N 37°56' E 023°38'0 0.3
2014-Jul-24 11:33N 37°57' E 023°38'0 0.0
2014-Jul-23 22:22N 37°57' E 023°38'5730.0
2014-Jul-23 20:28N 37°19' E 024°33'2322.8
2014-Jul-23 19:27N 36°56' E 024°34'2010.5
2014-Jul-23 17:34N 36°41' E 024°50'19 8.1
2014-Jul-23 15:15N 36°53' E 024°32'7728.5
2014-Jul-23 12:34N 37°57' E 023°38'0 0.2
2014-Jul-23 11:33N 37°57' E 023°38'0 0.0
2014-Jul-22 22:10N 37°57' E 023°38'7527.8
2014-Jul-22 19:28N 36°56' E 024°35'2110.9
2014-Jul-22 17:33N 36°41' E 024°52'9619.2
2014-Jul-22 12:34N 37°57' E 023°38'0 0.1
2014-Jul-22 11:34N 37°57' E 023°38'8 0.6
2014-Jul-21 21:33N 37°49' E 023°40'6931.7
2014-Jul-21 19:23N 36°54' E 024°32'2010.9
2014-Jul-21 17:33N 36°41' E 024°51'1211.7
2014-Jul-21 16:32N 36°44' E 024°37'9 7.2
2014-Jul-21 15:14N 36°52' E 024°30'7728.6
2014-Jul-21 12:34N 37°57' E 023°38'0 0.3
2014-Jul-21 11:34N 37°57' E 023°38'76 4.7
2014-Jul-20 19:29N 36°55' E 024°33'2713.9
2014-Jul-20 17:33N 36°35' E 024°56'2611.5
2014-Jul-20 15:15N 36°53' E 024°31'  
Track history (hours):
 
Tides and Currents Weather Stations Pressure Air Temp Water Temp Dewpoint Dewpoint Depression Visibility Wind Speed Wind Dir Waves Ship Positions

Flying Cat 3

Last reported at 2014-Jul-29 21:33 UTC. Time now 2014-Jul-30 03:00 UTC.
Position N 37°49' E 023°40'.

Length 48 m; draft 1.5 m.

Type: High speed craft. MMSI: 239552000.

Date/timePositionNaut miles runAvg speedWind from/ knotsBaromVisibWave heightAir tempDewpointWater temp
2014-Jul-29 21:33N 37°49' E 023°40'6832.3
2014-Jul-29 19:27N 36°57' E 024°35'2311.9
2014-Jul-29 17:33N 36°40' E 024°54'22 9.0
2014-Jul-29 15:07N 36°56' E 024°35'7629.6
2014-Jul-29 12:34N 37°56' E 023°38'0 0.3
2014-Jul-29 11:34N 37°57' E 023°38'0 0.0
2014-Jul-28 22:09N 37°57' E 023°38'1322.8
2014-Jul-28 21:33N 37°44' E 023°44'6428.7
2014-Jul-28 19:20N 36°53' E 024°31'1910.9
2014-Jul-28 17:34N 36°41' E 024°51'8018.1
2014-Jul-28 13:07N 37°40' E 023°42'1729.4
2014-Jul-28 12:34N 37°56' E 023°38'0 0.3
2014-Jul-28 11:33N 37°57' E 023°38'0 0.0
2014-Jul-28 10:33N 37°57' E 023°38'0 0.0
2014-Jul-27 22:03N 37°57' E 023°38'1121.4
2014-Jul-27 21:33N 37°46' E 023°42'8521.4
2014-Jul-27 17:33N 36°41' E 024°51'20 8.1
2014-Jul-27 15:06N 36°56' E 024°35'6230.6
2014-Jul-27 13:04N 37°41' E 023°41'7 0.5
2014-Jul-26 21:33N 37°48' E 023°41'9422.3
2014-Jul-26 17:21N 36°37' E 024°57'8820.6
2014-Jul-26 13:05N 37°41' E 023°41'1629.5
2014-Jul-26 12:33N 37°56' E 023°38'0 0.3
2014-Jul-26 11:33N 37°57' E 023°38'0 0.0
2014-Jul-26 10:33N 37°57' E 023°38'8 0.6
2014-Jul-25 21:33N 37°48' E 023°40'6831.3
2014-Jul-25 19:22N 36°54' E 024°33'2511.1
2014-Jul-25 17:10N 36°38' E 024°56'10021.6
2014-Jul-25 12:33N 37°56' E 023°38'0 0.5
2014-Jul-25 11:33N 37°57' E 023°38'77 4.7
2014-Jul-24 19:21N 36°52' E 024°31'2111.7
2014-Jul-24 17:33N 36°40' E 024°52'9619.2
2014-Jul-24 12:33N 37°56' E 023°38'0 0.3
2014-Jul-24 11:33N 37°57' E 023°38'0 0.0
2014-Jul-23 22:22N 37°57' E 023°38'5730.0
2014-Jul-23 20:28N 37°19' E 024°33'2322.8
2014-Jul-23 19:27N 36°56' E 024°34'2010.5
2014-Jul-23 17:34N 36°41' E 024°50'19 8.1
2014-Jul-23 15:15N 36°53' E 024°32'7728.5
2014-Jul-23 12:34N 37°57' E 023°38'0 0.2
2014-Jul-23 11:33N 37°57' E 023°38'0 0.0
2014-Jul-22 22:10N 37°57' E 023°38'7527.8
2014-Jul-22 19:28N 36°56' E 024°35'2110.9
2014-Jul-22 17:33N 36°41' E 024°52'9619.2
2014-Jul-22 12:34N 37°57' E 023°38'0 0.1
2014-Jul-22 11:34N 37°57' E 023°38'8 0.6
2014-Jul-21 21:33N 37°49' E 023°40'6931.7
2014-Jul-21 19:23N 36°54' E 024°32'2010.9
2014-Jul-21 17:33N 36°41' E 024°51'1211.7
2014-Jul-21 16:32N 36°44' E 024°37'9 7.2
2014-Jul-21 15:14N 36°52' E 024°30'7728.6
2014-Jul-21 12:34N 37°57' E 023°38'0 0.3
2014-Jul-21 11:34N 37°57' E 023°38'76 4.7
2014-Jul-20 19:29N 36°55' E 024°33'2713.9
2014-Jul-20 17:33N 36°35' E 024°56'2611.5
2014-Jul-20 15:15N 36°53' E 024°31'  

Dump ship's entire track history